sensor_id;sensor_type;location;lat;lon;timestamp;P1;durP1;ratioP1;P2;durP2;ratioP2
15408;SDS011;7803;48.130;13.788;2022-11-20T00:02:15;8.32;;;7.53;;
15408;SDS011;7803;48.130;13.788;2022-11-20T00:05:19;8.18;;;7.38;;
15408;SDS011;7803;48.130;13.788;2022-11-20T00:08:21;8.23;;;7.43;;
15408;SDS011;7803;48.130;13.788;2022-11-20T00:11:23;7.80;;;7.03;;
15408;SDS011;7803;48.130;13.788;2022-11-20T00:14:26;9.75;;;7.85;;
15408;SDS011;7803;48.130;13.788;2022-11-20T00:17:29;7.85;;;7.05;;
15408;SDS011;7803;48.130;13.788;2022-11-20T00:20:32;7.70;;;7.00;;
15408;SDS011;7803;48.130;13.788;2022-11-20T00:23:34;7.75;;;6.95;;
15408;SDS011;7803;48.130;13.788;2022-11-20T00:26:36;8.20;;;6.97;;
15408;SDS011;7803;48.130;13.788;2022-11-20T00:29:38;7.65;;;6.88;;
15408;SDS011;7803;48.130;13.788;2022-11-20T00:32:40;8.38;;;7.35;;
15408;SDS011;7803;48.130;13.788;2022-11-20T00:35:44;8.07;;;7.22;;
15408;SDS011;7803;48.130;13.788;2022-11-20T00:38:46;7.80;;;7.00;;
15408;SDS011;7803;48.130;13.788;2022-11-20T00:41:52;8.30;;;7.32;;
15408;SDS011;7803;48.130;13.788;2022-11-20T00:44:53;8.18;;;7.20;;
15408;SDS011;7803;48.130;13.788;2022-11-20T00:47:55;8.23;;;7.30;;
15408;SDS011;7803;48.130;13.788;2022-11-20T00:50:59;8.05;;;7.25;;
15408;SDS011;7803;48.130;13.788;2022-11-20T00:54:01;7.80;;;7.00;;
15408;SDS011;7803;48.130;13.788;2022-11-20T00:57:03;7.88;;;7.07;;
15408;SDS011;7803;48.130;13.788;2022-11-20T01:00:06;8.10;;;7.38;;
15408;SDS011;7803;48.130;13.788;2022-11-20T01:03:08;8.43;;;7.32;;
15408;SDS011;7803;48.130;13.788;2022-11-20T01:06:12;9.82;;;7.07;;
15408;SDS011;7803;48.130;13.788;2022-11-20T01:09:16;7.70;;;7.00;;
15408;SDS011;7803;48.130;13.788;2022-11-20T01:12:18;7.20;;;6.50;;
15408;SDS011;7803;48.130;13.788;2022-11-20T01:15:20;8.05;;;6.45;;
15408;SDS011;7803;48.130;13.788;2022-11-20T01:18:22;7.60;;;6.80;;
15408;SDS011;7803;48.130;13.788;2022-11-20T01:21:26;7.60;;;6.80;;
15408;SDS011;7803;48.130;13.788;2022-11-20T01:24:29;7.90;;;7.10;;
15408;SDS011;7803;48.130;13.788;2022-11-20T01:27:31;7.68;;;6.95;;
15408;SDS011;7803;48.130;13.788;2022-11-20T01:30:33;9.05;;;6.95;;
15408;SDS011;7803;48.130;13.788;2022-11-20T01:33:35;8.43;;;7.10;;
15408;SDS011;7803;48.130;13.788;2022-11-20T01:36:39;7.55;;;6.68;;
15408;SDS011;7803;48.130;13.788;2022-11-20T01:39:42;7.30;;;6.60;;
15408;SDS011;7803;48.130;13.788;2022-11-20T01:42:45;7.22;;;6.43;;
15408;SDS011;7803;48.130;13.788;2022-11-20T01:46:26;7.68;;;6.93;;
15408;SDS011;7803;48.130;13.788;2022-11-20T01:49:30;7.55;;;6.85;;
15408;SDS011;7803;48.130;13.788;2022-11-20T01:52:39;7.68;;;6.53;;
15408;SDS011;7803;48.130;13.788;2022-11-20T01:55:47;7.10;;;6.40;;
15408;SDS011;7803;48.130;13.788;2022-11-20T01:58:53;7.45;;;6.30;;
15408;SDS011;7803;48.130;13.788;2022-11-20T02:01:59;7.32;;;6.50;;
15408;SDS011;7803;48.130;13.788;2022-11-20T02:05:04;7.40;;;6.70;;
15408;SDS011;7803;48.130;13.788;2022-11-20T02:08:15;7.55;;;6.85;;
15408;SDS011;7803;48.130;13.788;2022-11-20T02:11:18;7.40;;;6.70;;
15408;SDS011;7803;48.130;13.788;2022-11-20T02:14:21;7.30;;;6.60;;
15408;SDS011;7803;48.130;13.788;2022-11-20T02:17:25;7.45;;;6.75;;
15408;SDS011;7803;48.130;13.788;2022-11-20T02:20:28;7.20;;;6.50;;
15408;SDS011;7803;48.130;13.788;2022-11-20T02:23:31;8.20;;;6.82;;
15408;SDS011;7803;48.130;13.788;2022-11-20T02:26:42;9.90;;;7.32;;
15408;SDS011;7803;48.130;13.788;2022-11-20T02:29:49;7.85;;;7.03;;
15408;SDS011;7803;48.130;13.788;2022-11-20T02:32:53;7.65;;;6.90;;
15408;SDS011;7803;48.130;13.788;2022-11-20T02:35:55;7.30;;;6.60;;
15408;SDS011;7803;48.130;13.788;2022-11-20T02:38:57;7.00;;;6.30;;
15408;SDS011;7803;48.130;13.788;2022-11-20T02:42:01;7.10;;;6.40;;
15408;SDS011;7803;48.130;13.788;2022-11-20T02:45:03;7.03;;;6.30;;
15408;SDS011;7803;48.130;13.788;2022-11-20T02:48:06;6.90;;;6.20;;
15408;SDS011;7803;48.130;13.788;2022-11-20T02:51:08;8.77;;;6.63;;
15408;SDS011;7803;48.130;13.788;2022-11-20T02:54:10;7.10;;;6.40;;
15408;SDS011;7803;48.130;13.788;2022-11-20T02:57:14;6.40;;;5.80;;
15408;SDS011;7803;48.130;13.788;2022-11-20T03:00:16;7.20;;;6.60;;
15408;SDS011;7803;48.130;13.788;2022-11-20T03:03:18;7.07;;;6.38;;
15408;SDS011;7803;48.130;13.788;2022-11-20T03:06:20;7.82;;;6.90;;
15408;SDS011;7803;48.130;13.788;2022-11-20T03:09:22;7.32;;;6.63;;
15408;SDS011;7803;48.130;13.788;2022-11-20T03:12:26;7.00;;;6.35;;
15408;SDS011;7803;48.130;13.788;2022-11-20T03:15:28;8.30;;;6.05;;
15408;SDS011;7803;48.130;13.788;2022-11-20T03:18:30;6.53;;;5.93;;
15408;SDS011;7803;48.130;13.788;2022-11-20T03:21:32;7.10;;;6.40;;
15408;SDS011;7803;48.130;13.788;2022-11-20T03:24:35;7.05;;;6.38;;
15408;SDS011;7803;48.130;13.788;2022-11-20T03:27:38;7.10;;;6.40;;
15408;SDS011;7803;48.130;13.788;2022-11-20T03:30:40;7.50;;;6.45;;
15408;SDS011;7803;48.130;13.788;2022-11-20T03:33:42;7.03;;;6.43;;
15408;SDS011;7803;48.130;13.788;2022-11-20T03:36:45;6.70;;;6.10;;
15408;SDS011;7803;48.130;13.788;2022-11-20T03:39:47;7.35;;;6.20;;
15408;SDS011;7803;48.130;13.788;2022-11-20T03:42:50;7.68;;;6.32;;
15408;SDS011;7803;48.130;13.788;2022-11-20T03:45:52;6.63;;;6.00;;
15408;SDS011;7803;48.130;13.788;2022-11-20T03:48:54;6.90;;;6.30;;
15408;SDS011;7803;48.130;13.788;2022-11-20T03:51:57;6.65;;;6.05;;
15408;SDS011;7803;48.130;13.788;2022-11-20T03:54:59;6.80;;;6.10;;
15408;SDS011;7803;48.130;13.788;2022-11-20T03:58:02;7.05;;;6.35;;
15408;SDS011;7803;48.130;13.788;2022-11-20T04:01:05;6.75;;;6.15;;
15408;SDS011;7803;48.130;13.788;2022-11-20T04:04:08;7.40;;;6.60;;
15408;SDS011;7803;48.130;13.788;2022-11-20T04:07:10;7.80;;;5.80;;
15408;SDS011;7803;48.130;13.788;2022-11-20T04:10:12;7.47;;;6.78;;
15408;SDS011;7803;48.130;13.788;2022-11-20T04:13:15;6.88;;;5.95;;
15408;SDS011;7803;48.130;13.788;2022-11-20T04:16:18;6.68;;;6.07;;
15408;SDS011;7803;48.130;13.788;2022-11-20T04:19:21;6.85;;;6.13;;
15408;SDS011;7803;48.130;13.788;2022-11-20T04:22:23;7.20;;;6.45;;
15408;SDS011;7803;48.130;13.788;2022-11-20T04:25:25;6.85;;;6.15;;
15408;SDS011;7803;48.130;13.788;2022-11-20T04:28:28;6.30;;;5.70;;
15408;SDS011;7803;48.130;13.788;2022-11-20T04:31:33;6.68;;;5.97;;
15408;SDS011;7803;48.130;13.788;2022-11-20T04:34:36;6.97;;;5.57;;
15408;SDS011;7803;48.130;13.788;2022-11-20T04:37:38;6.70;;;6.10;;
15408;SDS011;7803;48.130;13.788;2022-11-20T04:40:40;6.70;;;6.00;;
15408;SDS011;7803;48.130;13.788;2022-11-20T04:43:45;6.22;;;5.63;;
15408;SDS011;7803;48.130;13.788;2022-11-20T04:46:47;6.13;;;5.53;;
15408;SDS011;7803;48.130;13.788;2022-11-20T04:49:49;6.32;;;5.68;;
15408;SDS011;7803;48.130;13.788;2022-11-20T04:52:51;6.30;;;5.70;;
15408;SDS011;7803;48.130;13.788;2022-11-20T04:55:58;7.03;;;5.88;;
15408;SDS011;7803;48.130;13.788;2022-11-20T04:59:02;6.43;;;5.78;;
15408;SDS011;7803;48.130;13.788;2022-11-20T05:02:04;6.40;;;5.80;;
15408;SDS011;7803;48.130;13.788;2022-11-20T05:05:07;5.82;;;5.28;;
15408;SDS011;7803;48.130;13.788;2022-11-20T05:08:09;5.70;;;5.20;;
15408;SDS011;7803;48.130;13.788;2022-11-20T05:11:11;5.78;;;5.18;;
15408;SDS011;7803;48.130;13.788;2022-11-20T05:14:17;7.30;;;6.03;;
15408;SDS011;7803;48.130;13.788;2022-11-20T05:17:18;5.88;;;5.32;;
15408;SDS011;7803;48.130;13.788;2022-11-20T05:20:20;5.70;;;5.18;;
15408;SDS011;7803;48.130;13.788;2022-11-20T05:23:23;5.95;;;5.35;;
15408;SDS011;7803;48.130;13.788;2022-11-20T05:26:25;5.75;;;5.20;;
15408;SDS011;7803;48.130;13.788;2022-11-20T05:29:28;7.38;;;6.07;;
15408;SDS011;7803;48.130;13.788;2022-11-20T05:32:30;5.50;;;5.00;;
15408;SDS011;7803;48.130;13.788;2022-11-20T05:35:32;6.25;;;5.20;;
15408;SDS011;7803;48.130;13.788;2022-11-20T05:38:34;6.30;;;5.50;;
15408;SDS011;7803;48.130;13.788;2022-11-20T05:41:36;6.00;;;5.40;;
15408;SDS011;7803;48.130;13.788;2022-11-20T05:44:39;5.43;;;4.93;;
15408;SDS011;7803;48.130;13.788;2022-11-20T05:47:41;5.38;;;4.88;;
15408;SDS011;7803;48.130;13.788;2022-11-20T05:50:43;7.05;;;5.28;;
15408;SDS011;7803;48.130;13.788;2022-11-20T05:53:45;5.47;;;4.97;;
15408;SDS011;7803;48.130;13.788;2022-11-20T05:56:48;5.65;;;4.97;;
15408;SDS011;7803;48.130;13.788;2022-11-20T05:59:51;5.63;;;5.13;;
15408;SDS011;7803;48.130;13.788;2022-11-20T06:02:53;5.72;;;5.15;;
15408;SDS011;7803;48.130;13.788;2022-11-20T06:05:55;5.90;;;5.30;;
15408;SDS011;7803;48.130;13.788;2022-11-20T06:08:57;5.25;;;4.75;;
15408;SDS011;7803;48.130;13.788;2022-11-20T06:12:00;5.32;;;4.82;;
15408;SDS011;7803;48.130;13.788;2022-11-20T06:15:03;5.30;;;4.80;;
15408;SDS011;7803;48.130;13.788;2022-11-20T06:18:06;5.60;;;4.95;;
15408;SDS011;7803;48.130;13.788;2022-11-20T06:21:09;5.30;;;4.80;;
15408;SDS011;7803;48.130;13.788;2022-11-20T06:24:12;5.90;;;5.10;;
15408;SDS011;7803;48.130;13.788;2022-11-20T06:27:15;5.47;;;4.93;;
15408;SDS011;7803;48.130;13.788;2022-11-20T06:30:18;6.25;;;5.30;;
15408;SDS011;7803;48.130;13.788;2022-11-20T06:33:20;5.60;;;5.00;;
15408;SDS011;7803;48.130;13.788;2022-11-20T06:36:22;5.28;;;4.78;;
15408;SDS011;7803;48.130;13.788;2022-11-20T06:39:24;5.18;;;4.68;;
15408;SDS011;7803;48.130;13.788;2022-11-20T06:42:26;5.20;;;4.70;;
15408;SDS011;7803;48.130;13.788;2022-11-20T06:45:30;5.25;;;4.75;;
15408;SDS011;7803;48.130;13.788;2022-11-20T06:48:32;5.38;;;4.88;;
15408;SDS011;7803;48.130;13.788;2022-11-20T06:51:34;5.18;;;4.68;;
15408;SDS011;7803;48.130;13.788;2022-11-20T06:54:36;6.53;;;5.40;;
15408;SDS011;7803;48.130;13.788;2022-11-20T06:57:38;5.43;;;4.55;;
15408;SDS011;7803;48.130;13.788;2022-11-20T07:00:41;4.88;;;4.38;;
15408;SDS011;7803;48.130;13.788;2022-11-20T07:03:44;5.13;;;4.60;;
15408;SDS011;7803;48.130;13.788;2022-11-20T07:06:46;5.25;;;4.75;;
15408;SDS011;7803;48.130;13.788;2022-11-20T07:09:49;5.07;;;4.57;;
15408;SDS011;7803;48.130;13.788;2022-11-20T07:12:51;5.28;;;4.70;;
15408;SDS011;7803;48.130;13.788;2022-11-20T07:15:55;5.22;;;4.43;;
15408;SDS011;7803;48.130;13.788;2022-11-20T07:19:00;5.63;;;4.68;;
15408;SDS011;7803;48.130;13.788;2022-11-20T07:22:02;4.80;;;4.38;;
15408;SDS011;7803;48.130;13.788;2022-11-20T07:25:05;5.32;;;4.40;;
15408;SDS011;7803;48.130;13.788;2022-11-20T07:28:08;4.78;;;4.32;;
15408;SDS011;7803;48.130;13.788;2022-11-20T07:31:12;4.88;;;4.40;;
15408;SDS011;7803;48.130;13.788;2022-11-20T07:34:14;5.00;;;4.45;;
15408;SDS011;7803;48.130;13.788;2022-11-20T07:37:16;9.43;;;4.80;;
15408;SDS011;7803;48.130;13.788;2022-11-20T07:40:18;11.52;;;4.82;;
15408;SDS011;7803;48.130;13.788;2022-11-20T07:43:20;9.38;;;4.78;;
15408;SDS011;7803;48.130;13.788;2022-11-20T07:46:24;9.05;;;5.18;;
15408;SDS011;7803;48.130;13.788;2022-11-20T07:49:26;7.93;;;4.45;;
15408;SDS011;7803;48.130;13.788;2022-11-20T07:52:28;8.13;;;4.47;;
15408;SDS011;7803;48.130;13.788;2022-11-20T07:55:30;8.45;;;4.63;;
15408;SDS011;7803;48.130;13.788;2022-11-20T07:58:33;8.77;;;4.55;;
15408;SDS011;7803;48.130;13.788;2022-11-20T08:01:36;7.47;;;4.85;;
15408;SDS011;7803;48.130;13.788;2022-11-20T08:04:38;8.55;;;5.00;;
15408;SDS011;7803;48.130;13.788;2022-11-20T08:07:41;9.20;;;4.50;;
15408;SDS011;7803;48.130;13.788;2022-11-20T08:10:45;9.35;;;4.00;;
15408;SDS011;7803;48.130;13.788;2022-11-20T08:13:47;6.28;;;4.50;;
15408;SDS011;7803;48.130;13.788;2022-11-20T08:17:07;7.80;;;4.50;;
15408;SDS011;7803;48.130;13.788;2022-11-20T08:20:09;7.30;;;4.05;;
15408;SDS011;7803;48.130;13.788;2022-11-20T08:23:12;5.35;;;3.90;;
15408;SDS011;7803;48.130;13.788;2022-11-20T08:26:14;8.02;;;3.92;;
15408;SDS011;7803;48.130;13.788;2022-11-20T08:29:16;7.38;;;4.30;;
15408;SDS011;7803;48.130;13.788;2022-11-20T08:32:19;6.75;;;4.05;;
15408;SDS011;7803;48.130;13.788;2022-11-20T08:35:21;6.00;;;3.85;;
15408;SDS011;7803;48.130;13.788;2022-11-20T08:38:23;5.85;;;3.92;;
15408;SDS011;7803;48.130;13.788;2022-11-20T08:41:25;7.63;;;4.00;;
15408;SDS011;7803;48.130;13.788;2022-11-20T08:44:28;5.78;;;3.70;;
15408;SDS011;7803;48.130;13.788;2022-11-20T08:47:31;8.63;;;4.03;;
15408;SDS011;7803;48.130;13.788;2022-11-20T08:50:33;6.38;;;3.85;;
15408;SDS011;7803;48.130;13.788;2022-11-20T08:53:35;5.88;;;3.90;;
15408;SDS011;7803;48.130;13.788;2022-11-20T08:56:37;5.38;;;4.00;;
15408;SDS011;7803;48.130;13.788;2022-11-20T08:59:39;4.63;;;3.85;;
15408;SDS011;7803;48.130;13.788;2022-11-20T09:02:43;6.97;;;4.00;;
15408;SDS011;7803;48.130;13.788;2022-11-20T09:05:45;5.57;;;3.90;;
15408;SDS011;7803;48.130;13.788;2022-11-20T09:08:47;6.40;;;3.83;;
15408;SDS011;7803;48.130;13.788;2022-11-20T09:11:53;5.22;;;3.53;;
15408;SDS011;7803;48.130;13.788;2022-11-20T09:14:55;5.47;;;3.80;;
15408;SDS011;7803;48.130;13.788;2022-11-20T09:18:00;9.65;;;3.70;;
15408;SDS011;7803;48.130;13.788;2022-11-20T09:21:04;5.47;;;3.58;;
15408;SDS011;7803;48.130;13.788;2022-11-20T09:24:08;5.93;;;3.80;;
15408;SDS011;7803;48.130;13.788;2022-11-20T09:27:10;6.25;;;3.50;;
15408;SDS011;7803;48.130;13.788;2022-11-20T09:30:13;5.00;;;3.35;;
15408;SDS011;7803;48.130;13.788;2022-11-20T09:33:17;7.78;;;3.50;;
15408;SDS011;7803;48.130;13.788;2022-11-20T09:36:19;5.60;;;3.60;;
15408;SDS011;7803;48.130;13.788;2022-11-20T09:39:21;5.22;;;3.42;;
15408;SDS011;7803;48.130;13.788;2022-11-20T09:42:27;5.13;;;3.30;;
15408;SDS011;7803;48.130;13.788;2022-11-20T09:45:39;4.22;;;3.10;;
15408;SDS011;7803;48.130;13.788;2022-11-20T09:48:55;5.95;;;3.20;;
15408;SDS011;7803;48.130;13.788;2022-11-20T09:52:17;7.32;;;3.58;;
15408;SDS011;7803;48.130;13.788;2022-11-20T09:55:27;7.53;;;4.10;;
15408;SDS011;7803;48.130;13.788;2022-11-20T09:58:32;9.98;;;4.18;;
15408;SDS011;7803;48.130;13.788;2022-11-20T10:01:39;10.27;;;4.82;;
15408;SDS011;7803;48.130;13.788;2022-11-20T10:04:46;9.15;;;4.50;;
15408;SDS011;7803;48.130;13.788;2022-11-20T10:07:53;84.22;;;63.63;;
15408;SDS011;7803;48.130;13.788;2022-11-20T10:11:04;66.15;;;49.95;;
15408;SDS011;7803;48.130;13.788;2022-11-20T10:14:14;34.40;;;22.98;;
15408;SDS011;7803;48.130;13.788;2022-11-20T10:17:24;29.15;;;18.52;;
15408;SDS011;7803;48.130;13.788;2022-11-20T10:20:39;24.52;;;15.73;;
15408;SDS011;7803;48.130;13.788;2022-11-20T10:23:54;26.05;;;15.77;;
15408;SDS011;7803;48.130;13.788;2022-11-20T10:27:15;24.10;;;13.85;;
15408;SDS011;7803;48.130;13.788;2022-11-20T10:30:37;20.15;;;13.02;;
15408;SDS011;7803;48.130;13.788;2022-11-20T10:33:44;16.77;;;10.70;;
15408;SDS011;7803;48.130;13.788;2022-11-20T10:36:54;17.90;;;10.02;;
15408;SDS011;7803;48.130;13.788;2022-11-20T10:40:00;21.30;;;9.40;;
15408;SDS011;7803;48.130;13.788;2022-11-20T10:43:08;14.85;;;8.90;;
15408;SDS011;7803;48.130;13.788;2022-11-20T10:46:15;13.43;;;8.05;;
15408;SDS011;7803;48.130;13.788;2022-11-20T10:49:19;11.70;;;7.13;;
15408;SDS011;7803;48.130;13.788;2022-11-20T10:52:25;10.30;;;6.70;;
15408;SDS011;7803;48.130;13.788;2022-11-20T10:55:38;10.70;;;6.10;;
15408;SDS011;7803;48.130;13.788;2022-11-20T10:58:45;8.80;;;5.50;;
15408;SDS011;7803;48.130;13.788;2022-11-20T11:01:57;8.05;;;5.40;;
15408;SDS011;7803;48.130;13.788;2022-11-20T11:05:00;8.43;;;4.90;;
15408;SDS011;7803;48.130;13.788;2022-11-20T11:08:12;10.00;;;4.78;;
15408;SDS011;7803;48.130;13.788;2022-11-20T11:11:18;6.47;;;3.95;;
15408;SDS011;7803;48.130;13.788;2022-11-20T11:14:23;6.88;;;4.20;;
15408;SDS011;7803;48.130;13.788;2022-11-20T11:17:26;7.07;;;3.53;;
15408;SDS011;7803;48.130;13.788;2022-11-20T11:20:30;7.78;;;3.13;;
15408;SDS011;7803;48.130;13.788;2022-11-20T11:23:34;3.47;;;2.83;;
15408;SDS011;7803;48.130;13.788;2022-11-20T11:26:38;5.05;;;2.67;;
15408;SDS011;7803;48.130;13.788;2022-11-20T11:29:40;4.15;;;2.60;;
15408;SDS011;7803;48.130;13.788;2022-11-20T11:32:43;2.80;;;2.47;;
15408;SDS011;7803;48.130;13.788;2022-11-20T11:35:45;4.93;;;2.42;;
15408;SDS011;7803;48.130;13.788;2022-11-20T11:38:52;3.78;;;2.10;;
15408;SDS011;7803;48.130;13.788;2022-11-20T11:41:54;2.45;;;1.75;;
15408;SDS011;7803;48.130;13.788;2022-11-20T11:44:58;3.15;;;2.22;;
15408;SDS011;7803;48.130;13.788;2022-11-20T11:48:07;4.07;;;2.80;;
15408;SDS011;7803;48.130;13.788;2022-11-20T11:51:10;9.05;;;3.88;;
15408;SDS011;7803;48.130;13.788;2022-11-20T11:54:15;13.18;;;3.80;;
15408;SDS011;7803;48.130;13.788;2022-11-20T11:57:23;11.10;;;4.15;;
15408;SDS011;7803;48.130;13.788;2022-11-20T12:00:30;13.05;;;4.20;;
15408;SDS011;7803;48.130;13.788;2022-11-20T12:03:34;17.90;;;4.30;;
15408;SDS011;7803;48.130;13.788;2022-11-20T12:06:38;12.50;;;3.90;;
15408;SDS011;7803;48.130;13.788;2022-11-20T12:09:46;13.93;;;3.92;;
15408;SDS011;7803;48.130;13.788;2022-11-20T12:12:52;9.70;;;3.55;;
15408;SDS011;7803;48.130;13.788;2022-11-20T12:15:57;11.43;;;3.75;;
15408;SDS011;7803;48.130;13.788;2022-11-20T12:19:00;10.80;;;3.75;;
15408;SDS011;7803;48.130;13.788;2022-11-20T12:22:02;7.80;;;3.45;;
15408;SDS011;7803;48.130;13.788;2022-11-20T12:25:14;12.50;;;3.90;;
15408;SDS011;7803;48.130;13.788;2022-11-20T12:31:50;8.73;;;3.35;;
15408;SDS011;7803;48.130;13.788;2022-11-20T12:35:00;11.23;;;3.50;;
15408;SDS011;7803;48.130;13.788;2022-11-20T12:38:20;8.15;;;3.42;;
15408;SDS011;7803;48.130;13.788;2022-11-20T12:41:43;9.45;;;3.28;;
15408;SDS011;7803;48.130;13.788;2022-11-20T12:45:24;6.68;;;2.78;;
15408;SDS011;7803;48.130;13.788;2022-11-20T12:49:02;10.70;;;3.10;;
15408;SDS011;7803;48.130;13.788;2022-11-20T12:52:18;7.80;;;2.97;;
15408;SDS011;7803;48.130;13.788;2022-11-20T12:55:32;9.02;;;3.33;;
15408;SDS011;7803;48.130;13.788;2022-11-20T12:58:47;9.43;;;2.95;;
15408;SDS011;7803;48.130;13.788;2022-11-20T13:02:02;7.30;;;2.90;;
15408;SDS011;7803;48.130;13.788;2022-11-20T13:05:18;10.40;;;2.80;;
15408;SDS011;7803;48.130;13.788;2022-11-20T13:08:23;5.70;;;2.83;;
15408;SDS011;7803;48.130;13.788;2022-11-20T13:11:32;7.70;;;2.72;;
15408;SDS011;7803;48.130;13.788;2022-11-20T13:14:42;8.80;;;2.75;;
15408;SDS011;7803;48.130;13.788;2022-11-20T13:17:50;5.80;;;2.40;;
15408;SDS011;7803;48.130;13.788;2022-11-20T13:20:56;8.20;;;3.03;;
15408;SDS011;7803;48.130;13.788;2022-11-20T13:24:03;7.10;;;2.58;;
15408;SDS011;7803;48.130;13.788;2022-11-20T13:27:17;6.05;;;2.67;;
15408;SDS011;7803;48.130;13.788;2022-11-20T13:30:23;8.10;;;2.60;;
15408;SDS011;7803;48.130;13.788;2022-11-20T13:33:30;8.35;;;2.42;;
15408;SDS011;7803;48.130;13.788;2022-11-20T13:36:34;6.40;;;2.45;;
15408;SDS011;7803;48.130;13.788;2022-11-20T13:39:37;7.68;;;2.60;;
15408;SDS011;7803;48.130;13.788;2022-11-20T13:42:40;7.63;;;2.90;;
15408;SDS011;7803;48.130;13.788;2022-11-20T13:45:56;5.00;;;2.20;;
15408;SDS011;7803;48.130;13.788;2022-11-20T13:48:59;4.32;;;2.45;;
15408;SDS011;7803;48.130;13.788;2022-11-20T13:52:20;5.97;;;2.80;;
15408;SDS011;7803;48.130;13.788;2022-11-20T13:55:37;7.72;;;2.40;;
15408;SDS011;7803;48.130;13.788;2022-11-20T13:58:47;6.45;;;2.72;;
15408;SDS011;7803;48.130;13.788;2022-11-20T14:01:56;8.18;;;2.60;;
15408;SDS011;7803;48.130;13.788;2022-11-20T14:05:00;8.63;;;2.65;;
15408;SDS011;7803;48.130;13.788;2022-11-20T14:08:04;6.13;;;2.45;;
15408;SDS011;7803;48.130;13.788;2022-11-20T14:11:13;8.27;;;2.45;;
15408;SDS011;7803;48.130;13.788;2022-11-20T14:14:18;6.97;;;2.53;;
15408;SDS011;7803;48.130;13.788;2022-11-20T14:17:24;4.97;;;2.35;;
15408;SDS011;7803;48.130;13.788;2022-11-20T14:20:31;6.00;;;2.60;;
15408;SDS011;7803;48.130;13.788;2022-11-20T14:23:35;4.68;;;2.30;;
15408;SDS011;7803;48.130;13.788;2022-11-20T14:26:41;6.95;;;2.42;;
15408;SDS011;7803;48.130;13.788;2022-11-20T14:29:46;5.50;;;2.40;;
15408;SDS011;7803;48.130;13.788;2022-11-20T14:32:52;5.57;;;2.40;;
15408;SDS011;7803;48.130;13.788;2022-11-20T14:35:57;4.88;;;2.40;;
15408;SDS011;7803;48.130;13.788;2022-11-20T14:39:01;4.95;;;2.10;;
15408;SDS011;7803;48.130;13.788;2022-11-20T14:42:10;4.88;;;2.13;;
15408;SDS011;7803;48.130;13.788;2022-11-20T14:45:17;5.13;;;2.17;;
15408;SDS011;7803;48.130;13.788;2022-11-20T14:48:23;4.30;;;1.80;;
15408;SDS011;7803;48.130;13.788;2022-11-20T14:51:30;5.50;;;1.90;;
15408;SDS011;7803;48.130;13.788;2022-11-20T14:54:43;3.28;;;1.73;;
15408;SDS011;7803;48.130;13.788;2022-11-20T14:57:53;5.93;;;2.00;;
15408;SDS011;7803;48.130;13.788;2022-11-20T15:00:57;3.08;;;1.70;;
15408;SDS011;7803;48.130;13.788;2022-11-20T15:04:05;4.95;;;1.80;;
15408;SDS011;7803;48.130;13.788;2022-11-20T15:07:09;4.03;;;1.73;;
15408;SDS011;7803;48.130;13.788;2022-11-20T15:10:13;5.97;;;2.00;;
15408;SDS011;7803;48.130;13.788;2022-11-20T15:13:26;3.65;;;1.83;;
15408;SDS011;7803;48.130;13.788;2022-11-20T15:16:31;4.15;;;2.17;;
15408;SDS011;7803;48.130;13.788;2022-11-20T15:19:35;3.20;;;1.83;;
15408;SDS011;7803;48.130;13.788;2022-11-20T15:22:40;4.35;;;1.98;;
15408;SDS011;7803;48.130;13.788;2022-11-20T15:25:47;3.90;;;1.80;;
15408;SDS011;7803;48.130;13.788;2022-11-20T15:28:51;5.00;;;2.13;;
15408;SDS011;7803;48.130;13.788;2022-11-20T15:31:54;4.05;;;1.70;;
15408;SDS011;7803;48.130;13.788;2022-11-20T15:34:58;4.97;;;1.90;;
15408;SDS011;7803;48.130;13.788;2022-11-20T15:38:01;6.13;;;1.83;;
15408;SDS011;7803;48.130;13.788;2022-11-20T15:41:04;4.70;;;1.70;;
15408;SDS011;7803;48.130;13.788;2022-11-20T15:44:07;4.32;;;1.80;;
15408;SDS011;7803;48.130;13.788;2022-11-20T15:47:10;4.65;;;1.88;;
15408;SDS011;7803;48.130;13.788;2022-11-20T15:50:14;4.05;;;1.70;;
15408;SDS011;7803;48.130;13.788;2022-11-20T15:53:21;4.65;;;1.80;;
15408;SDS011;7803;48.130;13.788;2022-11-20T15:56:24;3.90;;;1.50;;
15408;SDS011;7803;48.130;13.788;2022-11-20T15:59:27;5.25;;;1.70;;
15408;SDS011;7803;48.130;13.788;2022-11-20T16:02:30;4.13;;;1.65;;
15408;SDS011;7803;48.130;13.788;2022-11-20T16:05:38;3.90;;;1.60;;
15408;SDS011;7803;48.130;13.788;2022-11-20T16:08:41;3.90;;;1.60;;
15408;SDS011;7803;48.130;13.788;2022-11-20T16:11:44;5.68;;;1.70;;
15408;SDS011;7803;48.130;13.788;2022-11-20T16:14:47;6.28;;;1.80;;
15408;SDS011;7803;48.130;13.788;2022-11-20T16:18:07;3.45;;;1.50;;
15408;SDS011;7803;48.130;13.788;2022-11-20T16:21:14;7.60;;;1.90;;
15408;SDS011;7803;48.130;13.788;2022-11-20T16:24:18;7.68;;;1.90;;
15408;SDS011;7803;48.130;13.788;2022-11-20T16:27:21;7.78;;;2.30;;
15408;SDS011;7803;48.130;13.788;2022-11-20T16:30:24;6.30;;;1.55;;
15408;SDS011;7803;48.130;13.788;2022-11-20T16:33:27;8.40;;;2.08;;
15408;SDS011;7803;48.130;13.788;2022-11-20T16:36:31;5.22;;;1.77;;
15408;SDS011;7803;48.130;13.788;2022-11-20T16:39:34;7.68;;;2.00;;
15408;SDS011;7803;48.130;13.788;2022-11-20T16:42:37;5.82;;;1.70;;
15408;SDS011;7803;48.130;13.788;2022-11-20T16:45:41;6.57;;;1.88;;
15408;SDS011;7803;48.130;13.788;2022-11-20T16:48:44;5.82;;;2.03;;
15408;SDS011;7803;48.130;13.788;2022-11-20T16:51:55;4.32;;;1.90;;
15408;SDS011;7803;48.130;13.788;2022-11-20T16:54:57;5.90;;;2.20;;
15408;SDS011;7803;48.130;13.788;2022-11-20T16:58:00;5.25;;;2.00;;
15408;SDS011;7803;48.130;13.788;2022-11-20T17:01:07;6.38;;;2.00;;
15408;SDS011;7803;48.130;13.788;2022-11-20T17:04:11;6.30;;;1.90;;
15408;SDS011;7803;48.130;13.788;2022-11-20T17:07:16;4.90;;;1.83;;
15408;SDS011;7803;48.130;13.788;2022-11-20T17:10:19;6.20;;;1.92;;
15408;SDS011;7803;48.130;13.788;2022-11-20T17:13:22;3.80;;;1.63;;
15408;SDS011;7803;48.130;13.788;2022-11-20T17:16:27;4.05;;;1.67;;
15408;SDS011;7803;48.130;13.788;2022-11-20T17:19:30;4.93;;;1.80;;
15408;SDS011;7803;48.130;13.788;2022-11-20T17:22:34;5.93;;;2.53;;
15408;SDS011;7803;48.130;13.788;2022-11-20T17:25:39;6.97;;;1.95;;
15408;SDS011;7803;48.130;13.788;2022-11-20T17:28:42;3.90;;;1.60;;
15408;SDS011;7803;48.130;13.788;2022-11-20T17:31:45;4.28;;;1.85;;
15408;SDS011;7803;48.130;13.788;2022-11-20T17:34:49;3.42;;;1.58;;
15408;SDS011;7803;48.130;13.788;2022-11-20T17:37:55;3.42;;;1.60;;
15408;SDS011;7803;48.130;13.788;2022-11-20T17:41:00;3.53;;;1.70;;
15408;SDS011;7803;48.130;13.788;2022-11-20T17:44:04;3.80;;;1.50;;
15408;SDS011;7803;48.130;13.788;2022-11-20T17:47:07;3.92;;;1.50;;
15408;SDS011;7803;48.130;13.788;2022-11-20T17:50:10;3.58;;;1.70;;
15408;SDS011;7803;48.130;13.788;2022-11-20T17:53:14;2.58;;;1.35;;
15408;SDS011;7803;48.130;13.788;2022-11-20T17:56:18;5.22;;;2.22;;
15408;SDS011;7803;48.130;13.788;2022-11-20T17:59:38;5.18;;;1.73;;
15408;SDS011;7803;48.130;13.788;2022-11-20T18:02:41;4.68;;;1.80;;
15408;SDS011;7803;48.130;13.788;2022-11-20T18:05:46;4.53;;;2.05;;
15408;SDS011;7803;48.130;13.788;2022-11-20T18:08:52;3.75;;;1.70;;
15408;SDS011;7803;48.130;13.788;2022-11-20T18:11:55;2.63;;;1.60;;
15408;SDS011;7803;48.130;13.788;2022-11-20T18:15:01;3.42;;;1.67;;
15408;SDS011;7803;48.130;13.788;2022-11-20T18:18:05;4.95;;;1.58;;
15408;SDS011;7803;48.130;13.788;2022-11-20T18:21:08;4.63;;;1.60;;
15408;SDS011;7803;48.130;13.788;2022-11-20T18:24:13;2.55;;;1.58;;
15408;SDS011;7803;48.130;13.788;2022-11-20T18:27:16;2.33;;;1.48;;
15408;SDS011;7803;48.130;13.788;2022-11-20T18:30:21;4.13;;;1.40;;
15408;SDS011;7803;48.130;13.788;2022-11-20T18:33:24;3.47;;;1.50;;
15408;SDS011;7803;48.130;13.788;2022-11-20T18:36:27;2.97;;;1.45;;